createdAt,value
2023-03-29T00:00:34.909Z,2.5
2023-03-29T00:02:36.311Z,1.3
2023-03-29T00:04:37.665Z,2.1
2023-03-29T00:06:39.009Z,1.5
2023-03-29T00:08:43.820Z,2.2
2023-03-29T00:10:45.143Z,0.7
2023-03-29T00:12:46.507Z,1.1
2023-03-29T00:21:57.582Z,2.4
2023-03-29T00:30:03.085Z,1.7
2023-03-29T00:32:04.426Z,1.2
2023-03-29T00:36:12.101Z,1.5
2023-03-29T00:38:13.448Z,3.4
2023-03-29T00:40:14.812Z,0.9
2023-03-29T00:42:16.177Z,2
2023-03-29T00:48:20.260Z,1.9
2023-03-29T00:54:27.691Z,1.5
2023-03-29T00:56:29.032Z,2.1
2023-03-29T01:00:31.829Z,0.9
2023-03-29T01:02:33.195Z,1.8
2023-03-29T01:11:01.419Z,1.7
2023-03-29T01:17:08.668Z,2.4
2023-03-29T01:19:10.070Z,1.4
2023-03-29T01:21:11.491Z,1.6
2023-03-29T01:23:12.835Z,1.8
2023-03-29T01:25:14.209Z,1.8
2023-03-29T01:27:15.553Z,1.9
2023-03-29T01:29:16.929Z,2
2023-03-29T01:31:21.622Z,1.5
2023-03-29T01:35:24.343Z,1
2023-03-29T01:39:27.073Z,1.3
2023-03-29T01:43:29.821Z,2.2
2023-03-29T01:45:34.496Z,1.5
2023-03-29T01:47:35.891Z,3
2023-03-29T01:49:37.224Z,1.6
2023-03-29T01:51:38.612Z,1.3
2023-03-29T01:55:41.337Z,1.1
2023-03-29T02:01:48.840Z,1.6
2023-03-29T02:03:50.161Z,1.7
2023-03-29T02:04:52.458Z,1.9
2023-03-29T02:06:53.811Z,3
2023-03-29T02:08:55.199Z,1.7
2023-03-29T02:10:56.568Z,1.1
2023-03-29T02:15:02.596Z,1.4
2023-03-29T02:17:03.947Z,1.7
2023-03-29T02:19:05.351Z,1.2
2023-03-29T02:21:06.693Z,2.7
2023-03-29T02:25:09.469Z,1.1
2023-03-29T02:27:14.133Z,1.9
2023-03-29T02:29:15.506Z,1.2
2023-03-29T02:31:16.923Z,1.4
2023-03-29T02:51:33.882Z,2.4
2023-03-29T03:00:44.998Z,1.4
2023-03-29T03:02:46.466Z,0.7
2023-03-29T03:04:47.760Z,1.1
2023-03-29T03:06:49.174Z,1
2023-03-29T03:08:53.842Z,2.3
2023-03-29T03:10:55.205Z,0.9
2023-03-29T03:12:56.567Z,3.2
2023-03-29T03:14:57.934Z,1.8
2023-03-29T03:17:00.277Z,1.2
2023-03-29T03:19:00.704Z,0.6
2023-03-29T03:23:06.901Z,2.5
2023-03-29T03:25:08.227Z,1.5
2023-03-29T03:29:11.005Z,2.9
2023-03-29T03:33:13.814Z,1.8
2023-03-29T03:35:15.186Z,2.5
2023-03-29T03:37:19.864Z,4.6
2023-03-29T03:39:21.212Z,1.6
2023-03-29T03:41:22.611Z,2.4
2023-03-29T03:43:23.961Z,2.4
2023-03-29T03:45:25.318Z,2
2023-03-29T03:47:26.716Z,1.7
2023-03-29T03:49:28.043Z,2.6
2023-03-29T03:51:32.716Z,2.2
2023-03-29T03:53:34.086Z,2.3
2023-03-29T03:55:35.465Z,3.7
2023-03-29T03:56:37.836Z,2.3
2023-03-29T04:00:40.639Z,3.1
2023-03-29T04:02:42.089Z,2.6
2023-03-29T04:04:46.706Z,2
2023-03-29T04:06:48.076Z,3.6
2023-03-29T04:08:49.472Z,2.1
2023-03-29T04:10:50.856Z,3
2023-03-29T04:12:52.309Z,3.1
2023-03-29T04:14:53.676Z,2.6
2023-03-29T04:16:55.022Z,2
2023-03-29T04:25:03.919Z,3.8
2023-03-29T04:27:05.280Z,1.5
2023-03-29T04:29:06.653Z,2.1
2023-03-29T04:31:08.148Z,1.9
2023-03-29T04:33:12.699Z,2.1
2023-03-29T04:37:15.421Z,1.3
2023-03-29T04:45:20.901Z,1.7
2023-03-29T04:47:25.575Z,3.7
2023-03-29T04:49:26.910Z,2.2
2023-03-29T04:51:28.286Z,1.1
2023-03-29T05:02:00.023Z,2.3
2023-03-29T05:06:02.724Z,1.5
2023-03-29T05:08:04.123Z,1.2
2023-03-29T05:10:05.488Z,2.5
2023-03-29T05:12:06.933Z,2.2
2023-03-29T05:14:11.677Z,1.2
2023-03-29T05:16:13.091Z,0.9
2023-03-29T05:18:14.454Z,2
2023-03-29T05:20:15.876Z,1.9
2023-03-29T05:22:17.245Z,2.5
2023-03-29T05:24:18.678Z,2.8
2023-03-29T05:26:20.051Z,2.9
2023-03-29T05:28:24.733Z,2.6
2023-03-29T05:30:26.089Z,1.3
2023-03-29T05:32:27.553Z,1.7
2023-03-29T05:34:28.922Z,2.5
2023-03-29T05:36:30.371Z,1.7
2023-03-29T05:38:31.756Z,1.8
2023-03-29T05:40:33.112Z,1.4
2023-03-29T05:42:37.822Z,1.5
2023-03-29T05:44:39.168Z,2.3
2023-03-29T05:46:40.540Z,1.5
2023-03-29T05:47:42.937Z,2.1
2023-03-29T05:49:44.304Z,2.6
2023-03-29T05:51:45.703Z,2.2
2023-03-29T05:53:47.074Z,2.1
2023-03-29T05:55:51.815Z,3.1
2023-03-29T05:57:53.143Z,2.9
2023-03-29T05:59:54.533Z,2.4
2023-03-29T06:01:55.922Z,2.6
2023-03-29T06:03:57.376Z,3.4
2023-03-29T06:16:09.159Z,2.6
2023-03-29T06:18:10.468Z,2
2023-03-29T06:40:33.736Z,1.8
2023-03-29T06:49:41.628Z,1.5
2023-03-29T06:53:47.711Z,1
2023-03-29T06:55:49.109Z,1.6
2023-03-29T06:57:50.491Z,1.6
2023-03-29T06:59:51.897Z,1.2
2023-03-29T07:01:53.351Z,2.5
2023-03-29T07:12:03.670Z,2.6
2023-03-29T07:20:12.418Z,1.7
2023-03-29T07:24:15.212Z,2.9
2023-03-29T07:26:28.589Z,2.5
2023-03-29T07:28:18.010Z,2.9
2023-03-29T07:32:20.833Z,3
2023-03-29T07:34:25.514Z,3.2
2023-03-29T07:36:26.902Z,2.7
2023-03-29T07:39:30.650Z,2.1
2023-03-29T07:41:32.057Z,2.2
2023-03-29T07:45:34.881Z,2.4
2023-03-29T07:47:39.557Z,3.4
2023-03-29T07:51:42.362Z,2.5
2023-03-29T07:53:43.742Z,3.4
2023-03-29T07:55:46.917Z,2.8
2023-03-29T07:57:46.531Z,2.2
2023-03-29T07:59:47.914Z,2.6
2023-03-29T08:01:52.666Z,3.5
2023-03-29T08:03:54.134Z,2.4
2023-03-29T08:05:55.460Z,2
2023-03-29T08:07:56.832Z,2.5
2023-03-29T08:09:58.267Z,3
2023-03-29T08:11:59.638Z,2.3
2023-03-29T08:14:01.051Z,2.6
2023-03-29T08:16:05.860Z,2.8
2023-03-29T08:18:07.240Z,2.8
2023-03-29T08:20:08.600Z,4.6
2023-03-29T08:24:11.376Z,5.1
2023-03-29T08:26:12.768Z,2.2
2023-03-29T08:28:14.205Z,1.8
2023-03-29T08:30:18.931Z,4.6
2023-03-29T08:34:21.716Z,4.4
2023-03-29T08:44:59.486Z,3.7
2023-03-29T08:47:00.986Z,3.9
2023-03-29T08:49:02.320Z,4.6
2023-03-29T08:53:05.096Z,2.2
2023-03-29T08:55:06.518Z,2.4
2023-03-29T08:57:11.241Z,3.3
2023-03-29T08:59:12.631Z,4.1
2023-03-29T09:01:14.003Z,4
2023-03-29T09:03:15.532Z,5.6
2023-03-29T09:05:16.835Z,2.8
2023-03-29T09:09:19.615Z,3.7
2023-03-29T09:11:24.379Z,4.2
2023-03-29T09:13:25.806Z,1.6
2023-03-29T09:15:27.188Z,3.6
2023-03-29T09:17:28.592Z,4.2
2023-03-29T09:19:29.987Z,3.6
2023-03-29T09:25:50.793Z,4.6
2023-03-29T09:30:42.632Z,4.3
2023-03-29T09:32:44.112Z,4.4
2023-03-29T09:34:45.483Z,4.2
2023-03-29T09:38:51.569Z,5.1
2023-03-29T09:44:55.790Z,4.2
2023-03-29T09:46:57.244Z,3.3
2023-03-29T09:48:58.636Z,4.7
2023-03-29T09:51:00.123Z,2.7
2023-03-29T09:53:04.710Z,4.9
2023-03-29T09:55:06.176Z,4.6
2023-03-29T09:57:07.530Z,4.5
2023-03-29T09:59:08.976Z,4.4
2023-03-29T10:07:17.913Z,6.5
2023-03-29T10:09:19.287Z,4.9
2023-03-29T10:11:20.674Z,4.2
2023-03-29T10:26:36.213Z,4.9
2023-03-29T10:28:37.603Z,1.9
2023-03-29T10:30:39.041Z,3.6
2023-03-29T10:32:40.430Z,3.4
2023-03-29T10:34:45.151Z,3.4
2023-03-29T10:36:46.544Z,4.4
2023-03-29T10:38:47.963Z,5
2023-03-29T10:40:49.365Z,5
2023-03-29T10:42:50.775Z,5.1
2023-03-29T10:44:52.164Z,4.2
2023-03-29T10:46:53.571Z,5.9
2023-03-29T10:48:58.306Z,5.9
2023-03-29T10:50:59.798Z,4.9
2023-03-29T10:57:03.913Z,4.1
2023-03-29T10:59:05.280Z,5.6
2023-03-29T11:05:12.807Z,5.1
2023-03-29T11:07:14.228Z,2.9
2023-03-29T11:13:18.477Z,4.2
2023-03-29T11:17:24.633Z,3.9
2023-03-29T11:21:27.384Z,7.9
2023-03-29T11:22:29.712Z,5.1
2023-03-29T11:26:32.526Z,4.6
2023-03-29T11:28:33.920Z,4.9
2023-03-29T11:30:38.627Z,4.6
2023-03-29T11:32:40.050Z,5.8
2023-03-29T11:34:41.448Z,5
2023-03-29T11:36:42.840Z,4.2
2023-03-29T11:38:45.416Z,5.7
2023-03-29T11:44:54.107Z,3.9
2023-03-29T11:57:00.211Z,3.2
2023-03-29T12:17:22.311Z,2.8
2023-03-29T12:19:45.032Z,3.8
2023-03-29T12:23:47.856Z,3
2023-03-29T12:25:52.627Z,5.3
2023-03-29T12:27:54.008Z,3.3
2023-03-29T12:29:55.380Z,4.3
2023-03-29T12:31:56.813Z,4
2023-03-29T12:33:58.205Z,4
2023-03-29T12:35:59.626Z,4.6
2023-03-29T12:38:01.013Z,4.3
2023-03-29T12:40:05.695Z,5.3
2023-03-29T12:42:07.081Z,6.7
2023-03-29T12:44:10.760Z,4.6
2023-03-29T12:46:09.891Z,4.1
2023-03-29T12:48:11.393Z,4.5
2023-03-29T12:50:12.668Z,4.9
2023-03-29T12:52:14.054Z,3.2
2023-03-29T12:54:18.809Z,3.5
2023-03-29T12:56:20.221Z,5.3
2023-03-29T12:58:21.618Z,7.2
2023-03-29T13:00:22.985Z,3.7
2023-03-29T13:02:24.506Z,4.8
2023-03-29T13:04:25.825Z,5.7
2023-03-29T13:06:27.192Z,4.1
2023-03-29T13:10:33.314Z,4.4
2023-03-29T13:12:34.902Z,4.4
2023-03-29T13:13:37.110Z,3.6
2023-03-29T13:19:41.284Z,5.2
2023-03-29T13:21:45.971Z,2.9
2023-03-29T13:23:47.358Z,4.5
2023-03-29T13:27:50.814Z,5.4
2023-03-29T13:40:01.927Z,5.1
2023-03-29T13:42:03.334Z,4.4
2023-03-29T13:44:04.774Z,5.3
2023-03-29T13:50:12.239Z,3.9
2023-03-29T13:52:13.653Z,6.6
2023-03-29T13:58:17.929Z,6.1
2023-03-29T14:00:19.305Z,3
2023-03-29T14:02:20.752Z,6.4
2023-03-29T14:04:25.404Z,5.8
2023-03-29T14:06:26.806Z,5.8
2023-03-29T14:08:28.226Z,6.2
2023-03-29T14:09:30.545Z,5.5
2023-03-29T14:15:34.776Z,6.5
2023-03-29T14:17:39.475Z,5.9
2023-03-29T14:19:40.847Z,7.3
2023-03-29T14:29:47.738Z,1.9
2023-03-29T14:41:59.501Z,5.5
2023-03-29T14:44:00.894Z,5
2023-03-29T14:46:05.746Z,6.4
2023-03-29T14:50:08.457Z,4.3
2023-03-29T14:52:09.794Z,4.7
2023-03-29T14:54:11.206Z,6.6
2023-03-29T14:56:12.619Z,6.5
2023-03-29T14:58:14.366Z,5.5
2023-03-29T15:00:18.713Z,6.3
2023-03-29T15:02:20.215Z,5.9
2023-03-29T15:05:25.527Z,5.2
2023-03-29T15:07:25.304Z,6
2023-03-29T15:09:26.720Z,6.2
2023-03-29T15:11:28.110Z,6.1
2023-03-29T15:13:32.818Z,6
2023-03-29T15:15:34.206Z,5.1
2023-03-29T15:19:37.029Z,6.6
2023-03-29T15:23:39.839Z,4.9
2023-03-29T15:25:41.257Z,5.8
2023-03-29T15:27:45.977Z,6.7
2023-03-29T15:29:47.364Z,4.9
2023-03-29T15:31:48.838Z,6.4
2023-03-29T15:33:50.193Z,6.2
2023-03-29T15:35:51.569Z,4.8
2023-03-29T15:37:52.948Z,5.7
2023-03-29T15:39:54.403Z,5.4
2023-03-29T15:41:59.104Z,5.6
2023-03-29T15:44:00.502Z,4.9
2023-03-29T15:46:01.977Z,3.6
2023-03-29T15:48:03.355Z,4.8
2023-03-29T15:50:04.710Z,6.1
2023-03-29T15:52:06.106Z,5.9
2023-03-29T15:54:07.509Z,5.7
2023-03-29T15:56:12.227Z,6
2023-03-29T15:58:13.717Z,4.4
2023-03-29T16:00:15.050Z,4.1
2023-03-29T16:02:37.746Z,4.8
2023-03-29T16:06:40.361Z,6.1
2023-03-29T16:10:46.498Z,22.5
2023-03-29T16:35:06.612Z,5.3
2023-03-29T16:37:11.304Z,3.7
2023-03-29T16:39:12.729Z,3.9
2023-03-29T16:47:18.310Z,3.3
2023-03-29T16:49:19.733Z,3.3
2023-03-29T16:53:25.812Z,3.4
2023-03-29T16:56:29.580Z,5.1
2023-03-29T16:58:30.981Z,3.4
2023-03-29T17:00:32.347Z,3.1
2023-03-29T17:02:33.784Z,3.3
2023-03-29T17:04:38.477Z,4.3
2023-03-29T17:06:39.869Z,3.5
2023-03-29T17:08:41.251Z,3.5
2023-03-29T17:10:42.666Z,3
2023-03-29T17:12:44.080Z,4.3
2023-03-29T17:14:45.457Z,3.6
2023-03-29T17:16:46.858Z,2.6
2023-03-29T17:18:51.581Z,3.4
2023-03-29T17:22:54.356Z,3.3
2023-03-29T17:24:55.776Z,3.1
2023-03-29T17:28:58.570Z,3.1
2023-03-29T17:31:00.008Z,3.4
2023-03-29T17:37:07.464Z,3.2
2023-03-29T17:43:11.698Z,3.1
2023-03-29T17:45:13.122Z,3.5
2023-03-29T17:47:17.819Z,3
2023-03-29T17:49:19.216Z,2.7
2023-03-29T17:52:22.956Z,2.9
2023-03-29T17:54:24.379Z,2.4
2023-03-29T17:56:25.768Z,3.3
2023-03-29T17:58:27.204Z,3.5
2023-03-29T18:00:31.910Z,4
2023-03-29T18:02:33.384Z,3.8
2023-03-29T18:04:36.250Z,2.9
2023-03-29T18:06:37.586Z,3.5
2023-03-29T18:08:38.972Z,3.1
2023-03-29T18:10:40.390Z,3.1
2023-03-29T18:14:46.524Z,2.7
2023-03-29T18:16:47.953Z,3.2
2023-03-29T18:18:49.306Z,3
2023-03-29T18:20:50.706Z,2.3
2023-03-29T18:33:02.471Z,3.6
2023-03-29T18:47:15.646Z,2.8
2023-03-29T18:48:17.998Z,3.1
2023-03-29T18:50:19.409Z,3.2
2023-03-29T18:52:20.807Z,2.7
2023-03-29T18:54:22.195Z,3.4
2023-03-29T18:56:26.927Z,3.1
2023-03-29T19:04:32.542Z,2.8
2023-03-29T19:06:33.969Z,4.4
2023-03-29T19:14:42.848Z,3.2
2023-03-29T19:24:53.171Z,3.9
2023-03-29T19:26:54.587Z,2.2
2023-03-29T19:28:56.020Z,3
2023-03-29T19:30:57.447Z,3.5
2023-03-29T19:32:58.857Z,3.3
2023-03-29T19:39:06.350Z,4.1
2023-03-29T19:41:07.790Z,3.6
2023-03-29T19:43:09.161Z,3.3
2023-03-29T19:45:31.903Z,2.9
2023-03-29T19:47:33.369Z,3.6
2023-03-29T19:49:34.735Z,2.9
2023-03-29T19:51:39.437Z,2.7
2023-03-29T19:53:41.809Z,3.7
2023-03-29T19:55:42.258Z,3.1
2023-03-29T19:57:43.619Z,2.7
2023-03-29T19:59:45.039Z,3.8
2023-03-29T20:01:46.485Z,3.5
2023-03-29T20:03:47.836Z,3.6
2023-03-29T20:05:52.569Z,3.7
2023-03-29T20:22:07.107Z,3.2
2023-03-29T20:24:08.493Z,2.7
2023-03-29T20:26:12.182Z,3.6
2023-03-29T20:28:11.288Z,2.8
2023-03-29T20:30:12.734Z,2.4
2023-03-29T20:32:14.156Z,2.6
2023-03-29T20:34:18.771Z,2.2
2023-03-29T20:38:21.560Z,3.4
2023-03-29T20:39:25.669Z,3
2023-03-29T20:43:26.729Z,3.4
2023-03-29T20:49:34.570Z,2.9
2023-03-29T20:55:38.780Z,3.7
2023-03-29T20:57:40.200Z,3.9
2023-03-29T20:59:41.603Z,3.9
2023-03-29T21:03:47.771Z,4.1
2023-03-29T21:05:49.064Z,4.2
2023-03-29T21:07:50.477Z,4.3
2023-03-29T21:09:51.866Z,4.7
2023-03-29T21:11:54.750Z,4.2
2023-03-29T21:13:54.680Z,4.4
2023-03-29T21:15:59.439Z,4.6
2023-03-29T21:18:00.881Z,3.6
2023-03-29T21:20:02.201Z,4.3
2023-03-29T21:22:04.713Z,5
2023-03-29T21:24:04.976Z,3.3
2023-03-29T21:26:06.385Z,3.6
2023-03-29T21:28:07.766Z,4.3
2023-03-29T21:30:12.454Z,4.2
2023-03-29T21:32:13.820Z,4.7
2023-03-29T21:34:15.224Z,4.4
2023-03-29T21:43:26.536Z,4.7
2023-03-29T21:47:29.349Z,3.2
2023-03-29T21:49:30.760Z,3.3
2023-03-29T21:51:32.128Z,3.3
2023-03-29T21:55:34.935Z,4.5
2023-03-29T21:57:39.686Z,5
2023-03-29T21:59:41.092Z,4.1
2023-03-29T22:05:45.298Z,4.9
2023-03-29T22:09:48.122Z,3.6
2023-03-29T22:13:54.240Z,3.3
2023-03-29T22:15:55.644Z,3
2023-03-29T22:17:59.651Z,4
2023-03-29T22:19:58.398Z,2.8
2023-03-29T22:21:59.806Z,3.7
2023-03-29T22:24:01.229Z,2.7
2023-03-29T22:28:07.279Z,2
2023-03-29T22:30:08.674Z,2.5
2023-03-29T22:31:11.018Z,2.5
2023-03-29T22:33:12.421Z,2.4
2023-03-29T22:37:15.232Z,2.4
2023-03-29T22:39:19.908Z,1.6
2023-03-29T22:41:21.312Z,2.2
2023-03-29T22:43:22.739Z,2.5
2023-03-29T22:45:24.113Z,2.2
2023-03-29T22:47:25.532Z,2.7
2023-03-29T22:49:26.930Z,2
2023-03-29T22:53:33.047Z,2.4
2023-03-29T22:55:34.467Z,2.3
2023-03-29T22:57:35.845Z,1.7
2023-03-29T22:59:37.263Z,2.4
2023-03-29T23:01:38.675Z,0.5
2023-03-29T23:03:40.019Z,2.6
2023-03-29T23:05:41.433Z,1.2
2023-03-29T23:07:46.157Z,1.7
2023-03-29T23:15:51.772Z,0.5
2023-03-29T23:17:53.197Z,2.3
2023-03-29T23:19:54.559Z,1.9
2023-03-29T23:24:00.646Z,1.5
2023-03-29T23:26:02.028Z,1.5
2023-03-29T23:28:25.046Z,1.8
2023-03-29T23:30:26.397Z,0.7
2023-03-29T23:32:27.835Z,1.1
2023-03-29T23:36:33.901Z,1.1
2023-03-29T23:44:39.487Z,2.5
2023-03-29T23:46:41.052Z,2.4
2023-03-29T23:48:45.630Z,0.7
2023-03-29T23:50:47.021Z,0.6
2023-03-29T23:52:48.437Z,0.6
2023-03-29T23:54:49.805Z,1.9
2023-03-29T23:58:54.130Z,1.2
